createdAt,value
2022-12-14T00:02:04.359Z,37.22
2022-12-14T00:04:32.597Z,41.28
2022-12-14T00:07:00.752Z,41.78
2022-12-14T00:09:28.943Z,41.10
2022-12-14T00:11:57.157Z,39.10
2022-12-14T00:14:25.397Z,39.67
2022-12-14T00:16:53.645Z,34.83
2022-12-14T00:19:22.347Z,35.80
2022-12-14T00:21:50.573Z,39.47
2022-12-14T00:24:18.760Z,34.00
2022-12-14T00:26:47.000Z,31.95
2022-12-14T00:29:15.158Z,28.27
2022-12-14T00:31:43.355Z,24.65
2022-12-14T00:34:17.183Z,25.48
2022-12-14T00:36:46.534Z,27.98
2022-12-14T00:39:14.752Z,32.83
2022-12-14T00:41:43.338Z,26.17
2022-12-14T00:44:11.535Z,26.08
2022-12-14T00:46:39.850Z,26.33
2022-12-14T00:49:08.018Z,28.13
2022-12-14T00:51:36.181Z,28.45
2022-12-14T00:54:04.846Z,24.92
2022-12-14T00:56:33.414Z,27.52
2022-12-14T00:59:01.671Z,29.67
2022-12-14T01:01:30.683Z,31.70
2022-12-14T01:04:17.395Z,39.60
2022-12-14T01:06:53.320Z,31.60
2022-12-14T01:09:24.347Z,34.65
2022-12-14T01:11:53.482Z,35.72
2022-12-14T01:14:22.756Z,35.17
2022-12-14T01:16:50.995Z,38.33
2022-12-14T01:19:22.252Z,39.22
2022-12-14T01:21:50.464Z,36.50
2022-12-14T01:24:18.925Z,40.20
2022-12-14T01:26:47.140Z,39.45
2022-12-14T01:29:16.432Z,36.65
2022-12-14T01:31:48.695Z,37.55
2022-12-14T01:34:20.382Z,36.15
2022-12-14T01:36:48.747Z,35.30
2022-12-14T01:39:17.103Z,37.45
2022-12-14T01:41:49.512Z,40.03
2022-12-14T01:44:18.057Z,38.47
2022-12-14T01:47:34.380Z,35.97
2022-12-14T01:50:19.752Z,34.80
2022-12-14T01:52:51.307Z,34.70
2022-12-14T01:55:32.413Z,32.33
2022-12-14T01:58:19.627Z,33.55
2022-12-14T02:00:48.712Z,32.72
2022-12-14T02:03:39.015Z,33.45
2022-12-14T02:06:22.000Z,30.85
2022-12-14T02:08:54.728Z,32.58
2022-12-14T02:11:56.505Z,30.70
2022-12-14T02:14:25.142Z,26.55
2022-12-14T02:16:55.507Z,24.80
2022-12-14T02:19:23.962Z,25.63
2022-12-14T02:22:12.359Z,22.17
2022-12-14T02:25:26.682Z,23.63
2022-12-14T02:28:12.045Z,24.30
2022-12-14T02:30:43.237Z,20.60
2022-12-14T02:33:29.709Z,15.85
2022-12-14T02:36:46.958Z,21.92
2022-12-14T02:39:52.151Z,18.05
2022-12-14T02:42:31.760Z,18.55
2022-12-14T02:45:20.927Z,13.10
2022-12-14T02:48:15.019Z,13.43
2022-12-14T02:51:26.046Z,13.98
2022-12-14T02:54:15.814Z,13.45
2022-12-14T02:56:56.155Z,12.98
2022-12-14T02:59:25.601Z,12.55
2022-12-14T03:01:55.929Z,11.30
2022-12-14T03:04:27.356Z,13.52
2022-12-14T03:07:22.914Z,12.85
2022-12-14T03:09:52.331Z,14.00
2022-12-14T03:12:22.553Z,13.68
2022-12-14T03:14:54.321Z,13.68
2022-12-14T03:17:30.055Z,12.73
2022-12-14T03:20:16.427Z,10.75
2022-12-14T03:22:57.040Z,12.32
2022-12-14T03:25:35.160Z,13.02
2022-12-14T03:28:17.061Z,11.90
2022-12-14T03:31:01.246Z,12.27
2022-12-14T03:33:31.938Z,13.60
2022-12-14T03:36:14.479Z,12.93
2022-12-14T03:38:50.435Z,10.40
2022-12-14T03:41:36.394Z,13.43
2022-12-14T03:44:29.593Z,13.65
2022-12-14T03:47:08.853Z,12.27
2022-12-14T03:50:01.994Z,14.70
2022-12-14T03:53:06.581Z,12.57
2022-12-14T03:55:54.469Z,10.30
2022-12-14T03:58:37.349Z,12.75
2022-12-14T04:01:11.662Z,9.32
2022-12-14T04:03:44.221Z,8.82
2022-12-14T04:06:44.558Z,9.38
2022-12-14T04:09:40.523Z,9.50
2022-12-14T04:12:49.419Z,12.43
2022-12-14T04:15:54.878Z,13.98
2022-12-14T04:18:48.450Z,13.55
2022-12-14T04:21:16.621Z,17.65
2022-12-14T04:24:10.458Z,19.48
2022-12-14T04:26:45.513Z,16.40
2022-12-14T04:29:55.229Z,23.58
2022-12-14T04:32:38.185Z,22.52
2022-12-14T04:35:37.383Z,21.83
2022-12-14T04:38:15.732Z,21.17
2022-12-14T04:40:49.634Z,22.58
2022-12-14T04:43:23.540Z,14.07
2022-12-14T04:46:23.427Z,18.13
2022-12-14T04:49:29.460Z,18.10
2022-12-14T04:52:12.621Z,20.00
2022-12-14T04:54:56.435Z,22.40
2022-12-14T04:57:33.814Z,16.90
2022-12-14T05:00:03.269Z,18.25
2022-12-14T05:02:52.335Z,19.00
2022-12-14T05:05:44.094Z,24.02
2022-12-14T05:08:24.331Z,18.63
2022-12-14T05:11:39.647Z,18.15
2022-12-14T05:13:53.575Z,19.00
2022-12-14T05:16:24.334Z,16.52
2022-12-14T05:18:53.791Z,16.90
2022-12-14T05:21:40.299Z,20.55
2022-12-14T05:24:08.667Z,18.35
2022-12-14T05:26:36.835Z,18.15
2022-12-14T05:29:05.094Z,20.48
2022-12-14T05:31:33.446Z,21.75
2022-12-14T05:34:01.561Z,19.48
2022-12-14T05:36:29.703Z,16.40
2022-12-14T05:38:57.872Z,21.33
2022-12-14T05:41:26.246Z,20.67
2022-12-14T05:43:55.282Z,20.70
2022-12-14T05:46:23.546Z,19.95
2022-12-14T05:48:51.800Z,23.40
2022-12-14T05:51:20.013Z,20.95
2022-12-14T05:53:48.194Z,22.25
2022-12-14T05:56:19.881Z,22.23
2022-12-14T05:58:51.500Z,23.15
2022-12-14T06:01:20.152Z,24.08
2022-12-14T06:03:51.314Z,22.17
2022-12-14T06:06:19.847Z,24.80
2022-12-14T06:08:48.694Z,20.25
2022-12-14T06:11:22.600Z,25.63
2022-12-14T06:13:51.185Z,24.63
2022-12-14T06:16:22.586Z,24.85
2022-12-14T06:18:53.507Z,24.75
2022-12-14T06:21:26.061Z,21.20
2022-12-14T06:23:55.694Z,21.30
2022-12-14T06:26:25.007Z,22.58
2022-12-14T06:28:53.580Z,22.42
2022-12-14T06:31:27.967Z,27.75
2022-12-14T06:33:59.229Z,27.73
2022-12-14T06:36:30.750Z,26.70
2022-12-14T06:39:03.790Z,24.33
2022-12-14T06:41:32.828Z,29.33
2022-12-14T06:44:06.968Z,25.10
2022-12-14T06:46:36.374Z,29.52
2022-12-14T06:49:06.177Z,31.92
2022-12-14T06:51:39.588Z,31.08
2022-12-14T06:54:10.229Z,32.30
2022-12-14T06:56:40.729Z,32.05
2022-12-14T06:59:10.033Z,31.25
2022-12-14T07:01:39.348Z,34.33
2022-12-14T07:04:08.807Z,51.08
2022-12-14T07:06:40.913Z,61.90
2022-12-14T07:09:13.676Z,57.38
2022-12-14T07:11:42.217Z,64.25
2022-12-14T07:14:16.630Z,70.70
2022-12-14T07:16:48.252Z,71.05
2022-12-14T07:19:18.409Z,43.33
2022-12-14T07:21:46.728Z,36.35
2022-12-14T07:24:16.752Z,39.10
2022-12-14T07:26:45.012Z,37.28
2022-12-14T07:29:15.099Z,35.90
2022-12-14T07:31:43.845Z,44.38
2022-12-14T07:34:17.881Z,43.20
2022-12-14T07:36:49.252Z,42.65
2022-12-14T07:39:17.911Z,53.28
2022-12-14T07:41:48.951Z,47.67
2022-12-14T07:44:22.169Z,47.97
2022-12-14T07:46:50.400Z,52.00
2022-12-14T07:49:18.776Z,58.97
2022-12-14T07:51:47.027Z,58.78
2022-12-14T07:54:15.484Z,61.90
2022-12-14T07:56:44.685Z,58.03
2022-12-14T07:59:16.319Z,62.25
2022-12-14T08:01:45.064Z,62.80
2022-12-14T08:04:19.265Z,61.55
2022-12-14T08:06:48.711Z,59.78
2022-12-14T08:09:17.604Z,59.97
2022-12-14T08:11:45.934Z,61.95
2022-12-14T08:14:19.025Z,50.22
2022-12-14T08:16:48.860Z,51.00
2022-12-14T08:19:17.911Z,48.90
2022-12-14T08:21:46.157Z,48.42
2022-12-14T08:24:15.412Z,44.10
2022-12-14T08:26:47.264Z,43.15
2022-12-14T08:29:18.153Z,42.05
2022-12-14T08:31:46.536Z,45.38
2022-12-14T08:34:22.542Z,45.30
2022-12-14T08:36:53.909Z,39.88
2022-12-14T08:39:22.117Z,45.42
2022-12-14T08:41:50.401Z,42.22
2022-12-14T08:44:18.820Z,44.25
2022-12-14T08:46:47.970Z,44.50
2022-12-14T08:49:16.305Z,44.15
2022-12-14T08:51:44.549Z,41.50
2022-12-14T08:54:12.876Z,40.80
2022-12-14T08:56:41.166Z,49.22
2022-12-14T08:59:15.950Z,45.00
2022-12-14T09:01:57.800Z,40.92
2022-12-14T09:04:26.354Z,43.38
2022-12-14T09:06:54.555Z,44.78
2022-12-14T09:09:22.727Z,37.28
2022-12-14T09:11:50.933Z,45.13
2022-12-14T09:14:19.137Z,43.72
2022-12-14T09:16:47.438Z,45.00
2022-12-14T09:19:15.758Z,42.83
2022-12-14T09:21:43.906Z,42.33
2022-12-14T09:24:12.232Z,41.97
2022-12-14T09:26:40.429Z,44.75
2022-12-14T09:29:13.366Z,55.40
2022-12-14T09:31:42.392Z,48.78
2022-12-14T09:34:11.054Z,53.50
2022-12-14T09:36:39.340Z,50.97
2022-12-14T09:39:07.632Z,48.17
2022-12-14T09:41:36.007Z,56.95
2022-12-14T09:44:35.257Z,57.13
2022-12-14T09:47:09.549Z,57.55
2022-12-14T09:49:53.948Z,60.00
2022-12-14T09:52:33.821Z,58.70
2022-12-14T09:55:06.191Z,61.10
2022-12-14T09:58:07.492Z,58.35
2022-12-14T10:00:49.676Z,56.67
2022-12-14T10:03:51.876Z,57.80
2022-12-14T10:06:34.264Z,57.83
2022-12-14T10:09:13.876Z,54.33
2022-12-14T10:11:50.765Z,59.42
2022-12-14T10:14:25.026Z,58.10
2022-12-14T10:17:24.135Z,58.83
2022-12-14T10:19:55.628Z,51.90
2022-12-14T10:22:35.666Z,56.30
2022-12-14T10:25:12.705Z,50.38
2022-12-14T10:28:09.973Z,50.70
2022-12-14T10:30:36.344Z,55.17
2022-12-14T10:33:24.499Z,44.20
2022-12-14T10:36:05.399Z,47.10
2022-12-14T10:38:59.999Z,49.60
2022-12-14T10:41:58.885Z,44.53
2022-12-14T10:48:16.450Z,46.25
2022-12-14T10:51:06.286Z,43.55
2022-12-14T10:53:57.343Z,43.40
2022-12-14T10:56:30.099Z,60.33
2022-12-14T10:59:23.636Z,59.78
2022-12-14T11:02:08.302Z,45.78
2022-12-14T11:04:53.450Z,37.40
2022-12-14T11:07:25.198Z,43.20
2022-12-14T11:09:53.833Z,36.72
2022-12-14T11:12:23.748Z,35.78
2022-12-14T11:15:07.685Z,33.03
2022-12-14T11:17:36.003Z,34.50
2022-12-14T11:20:28.192Z,37.28
2022-12-14T11:23:05.432Z,34.42
2022-12-14T11:25:41.388Z,33.90
2022-12-14T11:28:38.156Z,30.23
2022-12-14T11:31:27.775Z,40.10
2022-12-14T11:33:58.313Z,29.25
2022-12-14T11:36:42.477Z,36.78
2022-12-14T11:39:13.397Z,29.95
2022-12-14T11:41:52.968Z,26.50
2022-12-14T11:44:26.246Z,25.02
2022-12-14T11:47:00.377Z,24.90
2022-12-14T11:49:40.766Z,25.48
2022-12-14T11:52:15.545Z,26.35
2022-12-14T11:54:50.186Z,23.98
2022-12-14T11:57:21.011Z,23.83
2022-12-14T12:00:02.554Z,26.98
2022-12-14T12:02:41.193Z,31.80
2022-12-14T12:05:14.152Z,23.20
2022-12-14T12:07:53.133Z,24.67
2022-12-14T12:10:28.399Z,22.55
2022-12-14T12:13:00.760Z,20.67
2022-12-14T12:15:40.269Z,24.25
2022-12-14T12:18:20.504Z,24.02
2022-12-14T12:21:13.818Z,20.80
2022-12-14T12:23:48.253Z,23.10
2022-12-14T12:26:27.184Z,22.00
2022-12-14T12:29:01.257Z,24.33
2022-12-14T12:31:39.151Z,22.27
2022-12-14T12:34:19.627Z,23.98
2022-12-14T12:37:17.497Z,22.17
2022-12-14T12:39:41.322Z,23.45
2022-12-14T12:42:24.544Z,20.13
2022-12-14T12:45:15.929Z,18.55
2022-12-14T12:47:52.370Z,21.10
2022-12-14T12:50:31.934Z,23.45
2022-12-14T12:53:16.830Z,21.23
2022-12-14T12:55:57.108Z,19.73
2022-12-14T12:58:32.988Z,25.60
2022-12-14T13:01:10.875Z,27.38
2022-12-14T13:03:45.227Z,28.80
2022-12-14T13:06:22.042Z,23.38
2022-12-14T13:08:57.990Z,26.55
2022-12-14T13:11:38.326Z,25.55
2022-12-14T13:14:17.546Z,27.98
2022-12-14T13:16:47.635Z,24.88
2022-12-14T13:19:50.293Z,29.23
2022-12-14T13:22:27.961Z,25.90
2022-12-14T13:25:07.303Z,25.90
2022-12-14T13:28:06.037Z,21.67
2022-12-14T13:30:48.209Z,23.08
2022-12-14T13:33:33.075Z,21.88
2022-12-14T13:36:16.332Z,20.95
2022-12-14T13:38:53.719Z,21.67
2022-12-14T13:41:27.713Z,23.25
2022-12-14T13:44:10.821Z,23.20
2022-12-14T13:46:39.274Z,32.28
2022-12-14T13:49:17.772Z,27.58
2022-12-14T13:51:50.499Z,22.55
2022-12-14T13:54:36.068Z,28.95
2022-12-14T13:57:15.640Z,30.88
2022-12-14T13:59:49.040Z,32.10
2022-12-14T14:02:32.344Z,27.30
2022-12-14T14:07:57.720Z,22.00
2022-12-14T14:10:37.797Z,25.17
2022-12-14T14:13:27.642Z,26.00
2022-12-14T14:16:28.169Z,25.55
2022-12-14T14:19:11.334Z,27.15
2022-12-14T14:25:09.510Z,29.88
2022-12-14T14:27:50.571Z,24.83
2022-12-14T14:30:27.619Z,24.60
2022-12-14T14:33:07.571Z,25.95
2022-12-14T14:35:44.651Z,25.85
2022-12-14T14:38:31.691Z,27.83
2022-12-14T14:41:17.692Z,24.30
2022-12-14T14:43:58.471Z,28.30
2022-12-14T14:46:41.021Z,23.17
2022-12-14T14:49:37.246Z,32.17
2022-12-14T14:52:37.705Z,31.83
2022-12-14T14:55:53.391Z,30.33
2022-12-14T14:58:28.686Z,39.40
2022-12-14T15:01:17.331Z,32.83
2022-12-14T15:03:45.732Z,40.38
2022-12-14T15:06:21.714Z,42.78
2022-12-14T15:08:57.441Z,29.35
2022-12-14T15:11:31.339Z,37.10
2022-12-14T15:14:35.612Z,32.67
2022-12-14T15:17:23.455Z,29.85
2022-12-14T15:19:57.134Z,26.45
2022-12-14T15:22:52.570Z,30.67
2022-12-14T15:25:28.367Z,24.58
2022-12-14T15:28:00.979Z,21.95
2022-12-14T15:30:29.950Z,30.00
2022-12-14T15:33:04.245Z,35.72
2022-12-14T15:35:38.929Z,36.15
2022-12-14T15:38:24.328Z,30.73
2022-12-14T15:41:04.501Z,33.30
2022-12-14T15:43:35.747Z,35.78
2022-12-14T15:46:06.980Z,35.25
2022-12-14T15:48:36.350Z,39.83
2022-12-14T15:51:18.082Z,28.02
2022-12-14T15:53:50.771Z,41.22
2022-12-14T15:56:22.415Z,33.55
2022-12-14T15:58:52.425Z,32.10
2022-12-14T16:01:26.382Z,41.67
2022-12-14T16:04:04.856Z,35.63
2022-12-14T16:06:42.857Z,35.00
2022-12-14T16:10:03.607Z,30.80
2022-12-14T16:12:44.224Z,30.45
2022-12-14T16:15:24.211Z,34.63
2022-12-14T16:18:02.050Z,31.98
2022-12-14T16:20:37.825Z,31.80
2022-12-14T16:23:06.146Z,34.38
2022-12-14T16:25:36.589Z,33.13
2022-12-14T16:28:28.746Z,31.52
2022-12-14T16:31:06.173Z,29.88
2022-12-14T16:33:37.362Z,27.35
2022-12-14T16:36:13.460Z,25.40
2022-12-14T16:39:03.805Z,32.25
2022-12-14T16:41:41.227Z,27.65
2022-12-14T16:44:23.410Z,24.70
2022-12-14T16:47:03.438Z,23.38
2022-12-14T16:49:40.732Z,34.60
2022-12-14T16:52:21.262Z,29.48
2022-12-14T16:55:12.009Z,28.27
2022-12-14T16:57:49.232Z,26.45
2022-12-14T17:00:38.009Z,34.80
2022-12-14T17:03:18.524Z,33.58
2022-12-14T17:05:54.551Z,27.15
2022-12-14T17:08:23.053Z,28.40
2022-12-14T17:10:51.732Z,26.67
2022-12-14T17:13:20.014Z,24.77
2022-12-14T17:16:00.421Z,26.42
2022-12-14T17:18:33.418Z,30.15
2022-12-14T17:21:02.500Z,29.95
2022-12-14T17:23:31.876Z,23.20
2022-12-14T17:26:00.464Z,22.83
2022-12-14T17:28:32.739Z,24.80
2022-12-14T17:31:02.483Z,29.02
2022-12-14T17:33:33.345Z,24.02
2022-12-14T17:36:04.415Z,25.70
2022-12-14T17:38:32.815Z,23.38
2022-12-14T17:41:00.983Z,22.08
2022-12-14T17:43:29.549Z,22.35
2022-12-14T17:46:01.214Z,19.80
2022-12-14T17:48:30.134Z,25.60
2022-12-14T17:50:58.325Z,23.85
2022-12-14T17:53:30.807Z,24.92
2022-12-14T17:55:59.498Z,23.50
2022-12-14T17:58:27.822Z,25.35
2022-12-14T18:01:01.982Z,30.42
2022-12-14T18:03:33.260Z,25.98
2022-12-14T18:06:03.702Z,24.67
2022-12-14T18:08:32.108Z,29.50
2022-12-14T18:11:10.148Z,22.27
2022-12-14T18:13:42.695Z,24.20
2022-12-14T18:16:16.772Z,19.10
2022-12-14T18:18:46.106Z,23.90
2022-12-14T18:21:14.874Z,20.45
2022-12-14T18:23:43.811Z,25.80
2022-12-14T18:26:20.272Z,25.17
2022-12-14T18:28:49.825Z,24.23
2022-12-14T18:31:27.352Z,21.13
2022-12-14T18:33:58.746Z,26.92
2022-12-14T18:36:30.066Z,24.05
2022-12-14T18:39:01.885Z,24.65
2022-12-14T18:41:31.192Z,22.48
2022-12-14T18:44:00.837Z,20.10
2022-12-14T18:46:29.384Z,23.90
2022-12-14T18:48:57.764Z,26.67
2022-12-14T18:51:27.385Z,22.08
2022-12-14T18:53:58.351Z,24.80
2022-12-14T18:56:31.764Z,24.27
2022-12-14T18:59:00.502Z,22.65
2022-12-14T19:01:29.036Z,24.48
2022-12-14T19:04:00.416Z,19.77
2022-12-14T19:06:46.532Z,23.80
2022-12-14T19:09:15.838Z,21.35
2022-12-14T19:11:44.680Z,25.80
2022-12-14T19:14:13.189Z,23.10
2022-12-14T19:16:41.405Z,23.65
2022-12-14T19:19:09.645Z,22.95
2022-12-14T19:21:37.863Z,24.08
2022-12-14T19:24:08.646Z,23.75
2022-12-14T19:26:39.489Z,21.70
2022-12-14T19:29:10.258Z,26.60
2022-12-14T19:31:38.540Z,23.40
2022-12-14T19:34:06.938Z,25.63
2022-12-14T19:36:35.173Z,23.40
2022-12-14T19:39:03.699Z,24.67
2022-12-14T19:41:34.634Z,29.25
2022-12-14T19:44:02.909Z,28.88
2022-12-14T19:46:31.211Z,30.67
2022-12-14T19:48:59.999Z,34.78
2022-12-14T19:51:30.890Z,34.92
2022-12-14T19:54:01.361Z,33.45
2022-12-14T19:56:29.618Z,34.70
2022-12-14T19:59:03.497Z,29.05
2022-12-14T20:01:36.537Z,27.42
2022-12-14T20:04:07.996Z,27.63
2022-12-14T20:06:36.395Z,30.77
2022-12-14T20:09:06.529Z,25.00
2022-12-14T20:11:34.935Z,23.27
2022-12-14T20:14:03.501Z,24.60
2022-12-14T20:16:31.824Z,22.98
2022-12-14T20:19:00.087Z,23.63
2022-12-14T20:21:29.492Z,22.98
2022-12-14T20:23:58.606Z,23.13
2022-12-14T20:26:27.744Z,29.02
2022-12-14T20:29:00.896Z,20.80
2022-12-14T20:31:29.177Z,30.25
2022-12-14T20:34:01.297Z,30.05
2022-12-14T20:36:30.192Z,27.77
2022-12-14T20:39:03.412Z,24.70
2022-12-14T20:44:02.321Z,29.38
2022-12-14T20:46:39.341Z,32.13
2022-12-14T20:49:13.114Z,31.65
2022-12-14T20:51:42.070Z,31.50
2022-12-14T20:54:13.574Z,32.35
2022-12-14T20:56:42.234Z,31.38
2022-12-14T20:59:10.965Z,28.75
2022-12-14T21:01:40.750Z,27.73
2022-12-14T21:04:09.617Z,33.28
2022-12-14T21:06:42.249Z,28.83
2022-12-14T21:09:12.161Z,29.67
2022-12-14T21:12:04.807Z,29.80
2022-12-14T21:14:36.132Z,29.60
2022-12-14T21:17:05.985Z,27.80
2022-12-14T21:19:35.986Z,31.85
2022-12-14T21:22:06.939Z,30.70
2022-12-14T21:27:31.203Z,34.10
2022-12-14T21:30:04.040Z,32.40
2022-12-14T21:32:35.290Z,33.25
2022-12-14T21:35:04.166Z,28.70
2022-12-14T21:37:32.371Z,29.77
2022-12-14T21:40:03.328Z,31.73
2022-12-14T21:42:31.490Z,29.90
2022-12-14T21:44:59.909Z,31.80
2022-12-14T21:47:30.074Z,30.40
2022-12-14T21:49:58.455Z,29.10
2022-12-14T21:52:28.056Z,35.70
2022-12-14T21:54:58.654Z,34.38
2022-12-14T21:57:50.151Z,31.20
2022-12-14T22:00:21.679Z,29.38
2022-12-14T22:02:50.021Z,29.55
2022-12-14T22:05:18.583Z,36.70
2022-12-14T22:07:47.471Z,30.33
2022-12-14T22:10:19.959Z,32.75
2022-12-14T22:12:51.201Z,30.20
2022-12-14T22:15:19.458Z,28.45
2022-12-14T22:17:49.132Z,28.52
2022-12-14T22:20:17.318Z,28.95
2022-12-14T22:22:45.489Z,30.95
2022-12-14T22:25:13.769Z,29.23
2022-12-14T22:27:49.734Z,31.17
2022-12-14T22:30:18.897Z,25.52
2022-12-14T22:32:49.978Z,26.08
2022-12-14T22:35:18.253Z,29.23
2022-12-14T22:37:49.121Z,29.35
2022-12-14T22:40:17.437Z,28.27
2022-12-14T22:42:45.659Z,25.00
2022-12-14T22:45:16.886Z,27.52
2022-12-14T22:47:45.095Z,30.35
2022-12-14T22:50:13.664Z,30.38
2022-12-14T22:52:41.864Z,27.42
2022-12-14T22:55:13.104Z,29.73
2022-12-14T22:57:44.731Z,27.70
2022-12-14T23:00:18.677Z,29.42
2022-12-14T23:02:48.750Z,32.08
2022-12-14T23:05:18.397Z,32.25
2022-12-14T23:07:47.215Z,31.23
2022-12-14T23:10:33.995Z,29.48
2022-12-14T23:13:20.792Z,31.38
2022-12-14T23:16:08.002Z,28.52
2022-12-14T23:18:54.773Z,27.00
2022-12-14T23:21:42.727Z,24.23
2022-12-14T23:24:29.759Z,22.95
2022-12-14T23:27:16.409Z,25.48
2022-12-14T23:30:03.282Z,27.70
2022-12-14T23:32:49.993Z,26.25
2022-12-14T23:35:38.294Z,24.67
2022-12-14T23:38:26.421Z,26.27
2022-12-14T23:41:20.554Z,27.77
2022-12-14T23:44:07.233Z,25.58
2022-12-14T23:46:54.225Z,36.45
2022-12-14T23:49:40.787Z,30.70
2022-12-14T23:52:30.554Z,37.63
2022-12-14T23:55:17.461Z,37.45
2022-12-14T23:58:04.250Z,32.70
